Time;durP1;ratioP1;P1;durP2;ratioP2;P2;SDS_P1;SDS_P2;PMS_P1;PMS_P2;Temp;Humidity;BMP_temperature;BMP_pressure;BME280_temperature;BME280_humidity;BME280_pressure;Samples;Min_cycle;Max_cycle;Signal;HPM_P1;HPM_P2
2023/02/20 00:01:23;;;;;;;2.50;0.80;;;;;;;-128.00;-1.00;-1.00;102378;1257;1013701;-46
2023/02/20 00:03:59;;;;;;;4.20;0.30;;;;;;;-128.00;-1.00;-1.00;101842;1257;1012599;-47
2023/02/20 00:06:28;;;;;;;1.60;0.50;;;;;;;-128.00;-1.00;-1.00;102151;1257;1015126;-46
2023/02/20 00:08:56;;;;;;;2.70;0.50;;;;;;;-128.00;-1.00;-1.00;102096;1260;1003811;-46
2023/02/20 00:11:27;;;;;;;2.40;0.50;;;;;;;-128.00;-1.00;-1.00;103749;1257;1010469;-46
2023/02/20 00:14:00;;;;;;;1.90;0.40;;;;;;;-128.00;-1.00;-1.00;101973;1264;1013455;-46
2023/02/20 00:16:28;;;;;;;2.00;0.40;;;;;;;-128.00;-1.00;-1.00;102172;1260;1003448;-45
2023/02/20 00:19:04;;;;;;;1.30;0.50;;;;;;;-128.00;-1.00;-1.00;102144;1260;1012747;-46
2023/02/20 00:21:36;;;;;;;2.40;0.40;;;;;;;-128.00;-1.00;-1.00;102461;1260;1010381;-45
2023/02/20 00:24:05;;;;;;;1.80;0.90;;;;;;;-128.00;-1.00;-1.00;102271;1260;1011913;-47
2023/02/20 00:26:33;;;;;;;0.90;0.20;;;;;;;-128.00;-1.00;-1.00;105413;1260;1002293;-47
2023/02/20 00:29:08;;;;;;;1.00;0.30;;;;;;;-128.00;-1.00;-1.00;102270;1258;1013554;-47
2023/02/20 00:31:36;;;;;;;2.30;0.30;;;;;;;-128.00;-1.00;-1.00;106094;1259;1012413;-48
2023/02/20 00:34:04;;;;;;;1.10;0.30;;;;;;;-128.00;-1.00;-1.00;106127;1257;1002358;-48
2023/02/20 00:36:40;;;;;;;1.80;0.30;;;;;;;-128.00;-1.00;-1.00;106132;1257;1011570;-48
2023/02/20 00:39:11;;;;;;;1.00;0.30;;;;;;;-128.00;-1.00;-1.00;102955;1257;1012707;-46
2023/02/20 00:41:40;;;;;;;1.10;0.30;;;;;;;-128.00;-1.00;-1.00;102476;1258;1012909;-46
2023/02/20 00:44:09;;;;;;;0.50;0.20;;;;;;;-128.00;-1.00;-1.00;102426;1260;1014101;-48
2023/02/20 00:46:37;;;;;;;1.70;0.50;;;;;;;-128.00;-1.00;-1.00;102150;1260;1002738;-48
2023/02/20 00:49:05;;;;;;;1.30;0.30;;;;;;;-128.00;-1.00;-1.00;102142;1258;1003777;-48
2023/02/20 00:51:48;;;;;;;0.60;0.30;;;;;;;-128.00;-1.00;-1.00;102195;1260;1013430;-46
2023/02/20 00:54:16;;;;;;;1.90;0.60;;;;;;;-128.00;-1.00;-1.00;106086;1257;1002574;-48
2023/02/20 00:56:45;;;;;;;1.20;0.30;;;;;;;-128.00;-1.00;-1.00;104066;1257;1012119;-47
2023/02/20 00:59:13;;;;;;;0.80;0.30;;;;;;;-128.00;-1.00;-1.00;102366;1257;1002916;-45
2023/02/20 01:01:41;;;;;;;0.80;0.20;;;;;;;-128.00;-1.00;-1.00;102255;1260;1002978;-47
2023/02/20 01:04:10;;;;;;;0.60;0.30;;;;;;;-128.00;-1.00;-1.00;102486;1260;1012791;-47
2023/02/20 01:06:38;;;;;;;1.10;0.30;;;;;;;-128.00;-1.00;-1.00;102259;1260;1012697;-47
2023/02/20 01:09:06;;;;;;;1.80;0.20;;;;;;;-128.00;-1.00;-1.00;102354;1260;1004989;-47
2023/02/20 01:11:37;;;;;;;2.30;0.30;;;;;;;-128.00;-1.00;-1.00;102299;1258;1013149;-47
2023/02/20 01:14:05;;;;;;;1.00;0.20;;;;;;;-128.00;-1.00;-1.00;104207;1260;1011152;-46
2023/02/20 01:16:33;;;;;;;0.80;0.30;;;;;;;-128.00;-1.00;-1.00;102221;1260;1002995;-45
2023/02/20 01:19:02;;;;;;;1.90;0.30;;;;;;;-128.00;-1.00;-1.00;106089;1258;1012939;-48
2023/02/20 01:21:30;;;;;;;1.50;0.30;;;;;;;-128.00;-1.00;-1.00;106137;1257;1002503;-47
2023/02/20 01:23:58;;;;;;;0.60;0.30;;;;;;;-128.00;-1.00;-1.00;105289;1259;1002300;-46
2023/02/20 01:26:26;;;;;;;1.40;0.20;;;;;;;-128.00;-1.00;-1.00;102159;1260;1010643;-44
2023/02/20 01:28:54;;;;;;;1.30;0.30;;;;;;;-128.00;-1.00;-1.00;106078;1256;1002299;-47
2023/02/20 01:31:23;;;;;;;0.60;0.20;;;;;;;-128.00;-1.00;-1.00;102245;1257;1012876;-46
2023/02/20 01:33:51;;;;;;;2.00;0.30;;;;;;;-128.00;-1.00;-1.00;102078;1260;1002180;-43
2023/02/20 01:36:19;;;;;;;3.60;0.30;;;;;;;-128.00;-1.00;-1.00;101977;1258;1003302;-46
2023/02/20 01:38:49;;;;;;;1.10;0.30;;;;;;;-128.00;-1.00;-1.00;102638;1260;1011487;-45
2023/02/20 01:41:18;;;;;;;1.60;0.40;;;;;;;-128.00;-1.00;-1.00;106091;1257;1013495;-47
2023/02/20 01:43:47;;;;;;;0.60;0.20;;;;;;;-128.00;-1.00;-1.00;103457;1257;1013100;-46
2023/02/20 01:46:37;;;;;;;0.40;0.20;;;;;;;-128.00;-1.00;-1.00;101995;1262;1013130;-46
2023/02/20 01:49:10;;;;;;;1.50;0.30;;;;;;;-128.00;-1.00;-1.00;106039;1257;1010044;-46
2023/02/20 01:51:40;;;;;;;0.80;0.20;;;;;;;-128.00;-1.00;-1.00;106098;1257;1011095;-46
2023/02/20 01:54:10;;;;;;;3.60;0.20;;;;;;;-128.00;-1.00;-1.00;102075;1257;1012674;-44
2023/02/20 01:56:38;;;;;;;0.70;0.20;;;;;;;-128.00;-1.00;-1.00;102256;1262;1012361;-46
2023/02/20 01:59:06;;;;;;;0.70;0.20;;;;;;;-128.00;-1.00;-1.00;101898;1257;1015074;-45
2023/02/20 02:01:35;;;;;;;0.60;0.20;;;;;;;-128.00;-1.00;-1.00;102004;1257;1010708;-45
2023/02/20 02:04:05;;;;;;;1.70;0.30;;;;;;;-128.00;-1.00;-1.00;102037;1263;1003809;-45
2023/02/20 02:06:33;;;;;;;0.50;0.30;;;;;;;-128.00;-1.00;-1.00;102306;1260;1012513;-45
2023/02/20 02:09:04;;;;;;;2.30;0.30;;;;;;;-128.00;-1.00;-1.00;106098;1257;1013545;-46
2023/02/20 02:11:35;;;;;;;0.50;0.30;;;;;;;-128.00;-1.00;-1.00;102761;1257;1012666;-45
2023/02/20 02:14:03;;;;;;;1.30;0.30;;;;;;;-128.00;-1.00;-1.00;106089;1261;1010935;-45
2023/02/20 02:16:52;;;;;;;0.70;0.30;;;;;;;-128.00;-1.00;-1.00;106080;1257;1002049;-45
2023/02/20 02:19:54;;;;;;;2.10;0.20;;;;;;;-128.00;-1.00;-1.00;105637;1257;1012816;-45
2023/02/20 02:23:00;;;;;;;1.20;0.20;;;;;;;-128.00;-1.00;-1.00;102103;1257;1013390;-45
2023/02/20 02:25:59;;;;;;;0.60;0.30;;;;;;;-128.00;-1.00;-1.00;102128;1258;1013111;-47
2023/02/20 02:29:01;;;;;;;2.60;0.50;;;;;;;-128.00;-1.00;-1.00;102104;1261;1010392;-48
2023/02/20 02:31:40;;;;;;;3.20;2.00;;;;;;;-128.00;-1.00;-1.00;102206;1257;1010298;-47
2023/02/20 02:34:39;;;;;;;2.00;0.30;;;;;;;-128.00;-1.00;-1.00;101962;1257;1012708;-44
2023/02/20 02:37:39;;;;;;;0.90;0.30;;;;;;;-128.00;-1.00;-1.00;102293;1257;1016695;-47
2023/02/20 02:40:13;;;;;;;3.90;0.30;;;;;;;-128.00;-1.00;-1.00;102231;1257;1013086;-46
2023/02/20 02:42:45;;;;;;;1.50;0.30;;;;;;;-128.00;-1.00;-1.00;104233;1258;1009767;-47
2023/02/20 02:45:21;;;;;;;0.60;0.30;;;;;;;-128.00;-1.00;-1.00;102240;1261;1010894;-49
2023/02/20 02:48:00;;;;;;;1.10;0.20;;;;;;;-128.00;-1.00;-1.00;104322;1263;1013075;-48
2023/02/20 02:50:33;;;;;;;0.50;0.20;;;;;;;-128.00;-1.00;-1.00;102020;1261;1012693;-48
2023/02/20 02:53:02;;;;;;;0.50;0.20;;;;;;;-128.00;-1.00;-1.00;102035;1258;1013114;-47
2023/02/20 02:55:32;;;;;;;1.50;0.20;;;;;;;-128.00;-1.00;-1.00;102189;1257;1011183;-46
2023/02/20 02:58:01;;;;;;;2.50;0.20;;;;;;;-128.00;-1.00;-1.00;102805;1257;1010851;-49
2023/02/20 03:00:34;;;;;;;0.30;0.20;;;;;;;-128.00;-1.00;-1.00;106132;1257;1013807;-49
2023/02/20 03:03:18;;;;;;;0.70;0.20;;;;;;;-128.00;-1.00;-1.00;106140;1257;1012560;-49
2023/02/20 03:05:54;;;;;;;0.60;0.20;;;;;;;-128.00;-1.00;-1.00;105245;1259;1012091;-46
2023/02/20 03:08:31;;;;;;;0.70;0.20;;;;;;;-128.00;-1.00;-1.00;102426;1257;1010001;-47
2023/02/20 03:11:04;;;;;;;2.00;0.20;;;;;;;-128.00;-1.00;-1.00;106114;1257;1011755;-48
2023/02/20 03:16:46;;;;;;;0.60;0.20;;;;;;;-128.00;-1.00;-1.00;103266;1259;1012457;-47
2023/02/20 03:19:16;;;;;;;1.90;0.20;;;;;;;-128.00;-1.00;-1.00;106101;1257;1012526;-49
2023/02/20 03:21:45;;;;;;;0.90;0.20;;;;;;;-128.00;-1.00;-1.00;106040;1259;1010959;-49
2023/02/20 03:24:13;;;;;;;2.00;0.20;;;;;;;-128.00;-1.00;-1.00;105466;1257;1010930;-46
2023/02/20 03:26:44;;;;;;;0.80;0.20;;;;;;;-128.00;-1.00;-1.00;105937;1257;1013510;-48
2023/02/20 03:29:15;;;;;;;0.90;0.20;;;;;;;-128.00;-1.00;-1.00;106075;1257;1002541;-49
2023/02/20 03:31:49;;;;;;;1.90;0.30;;;;;;;-128.00;-1.00;-1.00;106042;1257;1012531;-48
2023/02/20 03:45:44;;;;;;;0.40;0.10;;;;;;;-128.00;-1.00;-1.00;102465;1261;1013396;-46
2023/02/20 03:48:32;;;;;;;1.60;0.20;;;;;;;-128.00;-1.00;-1.00;106155;1258;1010398;-49
2023/02/20 03:51:10;;;;;;;1.50;0.20;;;;;;;-128.00;-1.00;-1.00;104071;1258;1011615;-47
2023/02/20 03:53:49;;;;;;;0.60;0.40;;;;;;;-128.00;-1.00;-1.00;102066;1256;1012991;-47
2023/02/20 03:56:24;;;;;;;1.40;0.20;;;;;;;-128.00;-1.00;-1.00;102010;1259;1012017;-47
2023/02/20 03:58:59;;;;;;;1.50;0.20;;;;;;;-128.00;-1.00;-1.00;106142;1257;1013148;-49
2023/02/20 04:01:28;;;;;;;0.20;0.10;;;;;;;-128.00;-1.00;-1.00;106067;1257;1009671;-48
2023/02/20 04:03:56;;;;;;;1.20;0.10;;;;;;;-128.00;-1.00;-1.00;102739;1257;1003736;-48
2023/02/20 04:06:27;;;;;;;0.30;0.10;;;;;;;-128.00;-1.00;-1.00;102179;1257;1012166;-46
2023/02/20 04:08:59;;;;;;;0.20;0.10;;;;;;;-128.00;-1.00;-1.00;102340;1257;1012192;-47
2023/02/20 04:11:34;;;;;;;1.30;0.30;;;;;;;-128.00;-1.00;-1.00;102558;1262;1012853;-47
2023/02/20 04:14:02;;;;;;;;;;;;;;;-128.00;-1.00;-1.00;106083;1257;1009371;-48
2023/02/20 04:16:37;;;;;;;1.10;0.20;;;;;;;-128.00;-1.00;-1.00;106102;1257;1011309;-48
2023/02/20 04:19:07;;;;;;;0.40;0.10;;;;;;;-128.00;-1.00;-1.00;104083;1257;1012327;-47
2023/02/20 04:21:41;;;;;;;0.70;0.10;;;;;;;-128.00;-1.00;-1.00;102865;1258;1012839;-46
2023/02/20 04:24:17;;;;;;;0.60;0.20;;;;;;;-128.00;-1.00;-1.00;106047;1257;1012819;-48
2023/02/20 04:26:45;;;;;;;1.30;0.20;;;;;;;-128.00;-1.00;-1.00;106071;1257;1011037;-49
2023/02/20 04:29:13;;;;;;;2.00;0.20;;;;;;;-128.00;-1.00;-1.00;105405;1257;1010175;-47
2023/02/20 04:31:41;;;;;;;1.20;0.30;;;;;;;-128.00;-1.00;-1.00;102252;1262;1012310;-47
2023/02/20 04:34:09;;;;;;;1.50;0.20;;;;;;;-128.00;-1.00;-1.00;106128;1257;1013005;-48
2023/02/20 04:36:38;;;;;;;1.40;0.20;;;;;;;-128.00;-1.00;-1.00;104800;1257;1012993;-47
2023/02/20 04:39:06;;;;;;;0.50;0.20;;;;;;;-128.00;-1.00;-1.00;102104;1257;1002863;-46
2023/02/20 04:41:34;;;;;;;1.00;0.20;;;;;;;-128.00;-1.00;-1.00;102416;1260;1010874;-47
2023/02/20 04:46:50;;;;;;;0.50;0.20;;;;;;;-128.00;-1.00;-1.00;105291;1257;1013966;-48
2023/02/20 04:49:19;;;;;;;0.60;0.10;;;;;;;-128.00;-1.00;-1.00;102378;1260;1013594;-47
2023/02/20 04:51:52;;;;;;;0.40;0.20;;;;;;;-128.00;-1.00;-1.00;102278;1260;1010140;-45
2023/02/20 04:54:21;;;;;;;0.80;0.20;;;;;;;-128.00;-1.00;-1.00;106077;1258;1011028;-46
2023/02/20 04:56:49;;;;;;;0.70;0.30;;;;;;;-128.00;-1.00;-1.00;105475;1257;1012594;-48
2023/02/20 04:59:18;;;;;;;1.50;0.40;;;;;;;-128.00;-1.00;-1.00;102020;1257;1012674;-47
2023/02/20 05:01:48;;;;;;;0.80;0.20;;;;;;;-128.00;-1.00;-1.00;102082;1259;1013747;-47
2023/02/20 05:04:19;;;;;;;1.10;0.50;;;;;;;-128.00;-1.00;-1.00;106104;1257;1010864;-47
2023/02/20 05:06:51;;;;;;;1.80;0.20;;;;;;;-128.00;-1.00;-1.00;102422;1260;1011308;-47
2023/02/20 05:09:20;;;;;;;0.50;0.20;;;;;;;-128.00;-1.00;-1.00;102064;1260;1013098;-47
2023/02/20 05:11:47;;;;;;;0.70;0.30;;;;;;;-128.00;-1.00;-1.00;106088;1256;1002429;-45
2023/02/20 05:14:15;;;;;;;0.90;0.20;;;;;;;-128.00;-1.00;-1.00;102641;1260;1003735;-47
2023/02/20 05:16:46;;;;;;;1.30;0.30;;;;;;;-128.00;-1.00;-1.00;102923;1260;1009565;-48
2023/02/20 05:19:15;;;;;;;0.90;0.30;;;;;;;-128.00;-1.00;-1.00;102033;1257;1011386;-47
2023/02/20 05:24:31;;;;;;;1.30;0.20;;;;;;;-128.00;-1.00;-1.00;103849;1261;1013017;-44
2023/02/20 05:26:59;;;;;;;1.20;0.30;;;;;;;-128.00;-1.00;-1.00;102243;1257;1014582;-47
2023/02/20 05:29:26;;;;;;;0.80;0.20;;;;;;;-128.00;-1.00;-1.00;102242;1261;1002554;-47
2023/02/20 05:31:54;;;;;;;0.50;0.30;;;;;;;-128.00;-1.00;-1.00;101966;1260;1002422;-47
2023/02/20 05:34:24;;;;;;;2.60;0.20;;;;;;;-128.00;-1.00;-1.00;102970;1258;1002493;-47
2023/02/20 05:36:53;;;;;;;0.50;0.20;;;;;;;-128.00;-1.00;-1.00;106059;1258;1012100;-48
2023/02/20 05:39:21;;;;;;;4.40;0.30;;;;;;;-128.00;-1.00;-1.00;106082;1257;1002584;-48
2023/02/20 05:41:49;;;;;;;1.00;0.30;;;;;;;-128.00;-1.00;-1.00;104064;1256;1009373;-48
2023/02/20 05:44:17;;;;;;;0.50;0.20;;;;;;;-128.00;-1.00;-1.00;102801;1260;1011029;-46
2023/02/20 05:46:45;;;;;;;1.00;0.20;;;;;;;-128.00;-1.00;-1.00;102361;1258;1003110;-46
2023/02/20 05:49:15;;;;;;;0.90;0.20;;;;;;;-128.00;-1.00;-1.00;102404;1257;1012706;-43
2023/02/20 05:51:43;;;;;;;1.40;0.20;;;;;;;-128.00;-1.00;-1.00;102253;1258;1013353;-45
2023/02/20 05:54:11;;;;;;;0.50;0.20;;;;;;;-128.00;-1.00;-1.00;102361;1259;1002793;-46
2023/02/20 05:56:41;;;;;;;0.90;0.20;;;;;;;-128.00;-1.00;-1.00;102314;1260;1003592;-48
2023/02/20 05:59:09;;;;;;;3.50;0.40;;;;;;;-128.00;-1.00;-1.00;102161;1260;1012827;-44
2023/02/20 06:01:37;;;;;;;0.90;0.20;;;;;;;-128.00;-1.00;-1.00;105982;1257;1012737;-48
2023/02/20 06:04:05;;;;;;;2.80;0.10;;;;;;;-128.00;-1.00;-1.00;106188;1257;1003208;-48
2023/02/20 06:06:39;;;;;;;0.40;0.20;;;;;;;-128.00;-1.00;-1.00;102822;1258;1012705;-47
2023/02/20 06:09:09;;;;;;;0.40;0.10;;;;;;;-128.00;-1.00;-1.00;104971;1258;1010767;-45
2023/02/20 06:11:38;;;;;;;1.00;0.20;;;;;;;-128.00;-1.00;-1.00;106207;1258;1013028;-48
2023/02/20 06:14:11;;;;;;;1.20;0.30;;;;;;;-128.00;-1.00;-1.00;105709;1262;1012691;-49
2023/02/20 06:16:39;;;;;;;2.80;0.20;;;;;;;-128.00;-1.00;-1.00;106086;1257;1012472;-50
2023/02/20 06:19:08;;;;;;;0.90;0.30;;;;;;;-128.00;-1.00;-1.00;106077;1257;1010173;-49
2023/02/20 06:21:39;;;;;;;1.10;0.20;;;;;;;-128.00;-1.00;-1.00;103306;1258;1011583;-47
2023/02/20 06:24:08;;;;;;;0.90;0.30;;;;;;;-128.00;-1.00;-1.00;102176;1258;1012993;-49
2023/02/20 06:26:39;;;;;;;0.70;0.20;;;;;;;-128.00;-1.00;-1.00;102170;1261;1003203;-46
2023/02/20 06:29:08;;;;;;;1.60;0.20;;;;;;;-128.00;-1.00;-1.00;106138;1259;1012702;-50
2023/02/20 06:31:36;;;;;;;1.00;0.20;;;;;;;-128.00;-1.00;-1.00;105997;1258;1010971;-50
2023/02/20 06:34:05;;;;;;;1.60;0.30;;;;;;;-128.00;-1.00;-1.00;102653;1258;1011261;-48
2023/02/20 06:36:37;;;;;;;0.50;0.20;;;;;;;-128.00;-1.00;-1.00;102491;1256;1014833;-47
2023/02/20 06:39:05;;;;;;;1.10;0.20;;;;;;;-128.00;-1.00;-1.00;102355;1257;1012744;-46
2023/02/20 06:41:34;;;;;;;1.40;0.20;;;;;;;-128.00;-1.00;-1.00;102091;1260;1012409;-48
2023/02/20 06:44:02;;;;;;;2.00;0.20;;;;;;;-128.00;-1.00;-1.00;104333;1257;1002649;-48
2023/02/20 06:46:31;;;;;;;2.80;0.20;;;;;;;-128.00;-1.00;-1.00;102093;1257;1011016;-47
2023/02/20 06:48:59;;;;;;;2.50;0.20;;;;;;;-128.00;-1.00;-1.00;102752;1257;1013115;-45
2023/02/20 06:51:31;;;;;;;3.40;0.20;;;;;;;-128.00;-1.00;-1.00;103665;1259;1012850;-46
2023/02/20 06:54:00;;;;;;;5.20;0.30;;;;;;;-128.00;-1.00;-1.00;102188;1258;1014085;-46
2023/02/20 06:56:32;;;;;;;0.50;0.20;;;;;;;-128.00;-1.00;-1.00;105218;1258;1010104;-48
2023/02/20 06:59:05;;;;;;;0.90;0.30;;;;;;;-128.00;-1.00;-1.00;102218;1257;1011985;-46
2023/02/20 07:01:41;;;;;;;1.40;0.10;;;;;;;-128.00;-1.00;-1.00;102327;1257;1014505;-46
2023/02/20 07:04:17;;;;;;;0.50;0.20;;;;;;;-128.00;-1.00;-1.00;105279;1259;1012748;-46
2023/02/20 07:06:46;;;;;;;2.90;0.20;;;;;;;-128.00;-1.00;-1.00;102685;1258;1013385;-46
2023/02/20 07:09:14;;;;;;;1.90;0.20;;;;;;;-128.00;-1.00;-1.00;106162;1257;1010911;-48
2023/02/20 07:11:42;;;;;;;0.50;0.20;;;;;;;-128.00;-1.00;-1.00;106161;1257;1011380;-48
2023/02/20 07:14:12;;;;;;;1.20;0.30;;;;;;;-128.00;-1.00;-1.00;106096;1259;1012839;-49
2023/02/20 07:16:39;;;;;;;2.50;0.30;;;;;;;-128.00;-1.00;-1.00;102659;1263;1012521;-46
2023/02/20 07:19:12;;;;;;;0.50;0.20;;;;;;;-128.00;-1.00;-1.00;102298;1257;1012534;-46
2023/02/20 07:21:40;;;;;;;0.60;0.30;;;;;;;-128.00;-1.00;-1.00;106059;1257;1002363;-49
2023/02/20 07:24:08;;;;;;;5.10;0.50;;;;;;;-128.00;-1.00;-1.00;104521;1257;1002230;-46
2023/02/20 07:26:38;;;;;;;0.60;0.20;;;;;;;-128.00;-1.00;-1.00;102306;1258;1012712;-46
2023/02/20 07:29:06;;;;;;;1.30;0.40;;;;;;;-128.00;-1.00;-1.00;106088;1256;1013228;-49
2023/02/20 07:31:34;;;;;;;5.20;0.30;;;;;;;-128.00;-1.00;-1.00;105819;1258;1012740;-49
2023/02/20 07:34:02;;;;;;;2.60;0.40;;;;;;;-128.00;-1.00;-1.00;102065;1257;1010298;-47
2023/02/20 07:36:35;;;;;;;0.50;0.20;;;;;;;-128.00;-1.00;-1.00;106106;1257;1011628;-50
2023/02/20 07:39:05;;;;;;;0.70;0.20;;;;;;;-128.00;-1.00;-1.00;106042;1257;1002444;-50
2023/02/20 07:41:36;;;;;;;0.70;0.30;;;;;;;-128.00;-1.00;-1.00;106123;1257;1013265;-50
2023/02/20 07:44:05;;;;;;;1.80;0.20;;;;;;;-128.00;-1.00;-1.00;103060;1257;1012399;-48
2023/02/20 07:46:35;;;;;;;1.20;0.20;;;;;;;-128.00;-1.00;-1.00;103457;1258;1010261;-49
2023/02/20 07:49:04;;;;;;;0.70;0.30;;;;;;;-128.00;-1.00;-1.00;105731;1257;1011431;-48
2023/02/20 07:51:32;;;;;;;0.50;0.20;;;;;;;-128.00;-1.00;-1.00;102028;1261;1002668;-47
2023/02/20 07:54:00;;;;;;;0.80;0.30;;;;;;;-128.00;-1.00;-1.00;102201;1259;1013289;-48
2023/02/20 07:56:28;;;;;;;0.70;0.20;;;;;;;-128.00;-1.00;-1.00;101934;1259;1002511;-48
2023/02/20 07:58:56;;;;;;;1.20;0.20;;;;;;;-128.00;-1.00;-1.00;101993;1259;1002564;-45
2023/02/20 08:01:26;;;;;;;0.80;0.30;;;;;;;-128.00;-1.00;-1.00;104441;1257;1011502;-49
2023/02/20 08:03:54;;;;;;;0.70;0.20;;;;;;;-128.00;-1.00;-1.00;102115;1257;1015144;-47
2023/02/20 08:06:22;;;;;;;0.60;0.30;;;;;;;-128.00;-1.00;-1.00;101854;1260;1002334;-47
2023/02/20 08:08:52;;;;;;;0.50;0.20;;;;;;;-128.00;-1.00;-1.00;101975;1260;1012801;-50
2023/02/20 08:11:21;;;;;;;1.70;0.20;;;;;;;-128.00;-1.00;-1.00;105930;1257;1002309;-50
2023/02/20 08:13:49;;;;;;;0.60;0.20;;;;;;;-128.00;-1.00;-1.00;104951;1259;1011250;-47
2023/02/20 08:16:17;;;;;;;0.40;0.20;;;;;;;-128.00;-1.00;-1.00;105962;1257;1014020;-50
2023/02/20 08:18:45;;;;;;;2.10;0.20;;;;;;;-128.00;-1.00;-1.00;106060;1261;1012244;-50
2023/02/20 08:21:15;;;;;;;2.80;0.30;;;;;;;-128.00;-1.00;-1.00;106009;1257;1013112;-50
2023/02/20 08:23:43;;;;;;;0.70;0.20;;;;;;;-128.00;-1.00;-1.00;102843;1264;1010096;-51
2023/02/20 08:26:11;;;;;;;0.50;0.20;;;;;;;-128.00;-1.00;-1.00;106032;1257;1003163;-49
2023/02/20 08:28:40;;;;;;;1.10;0.20;;;;;;;-128.00;-1.00;-1.00;104373;1260;1012781;-50
2023/02/20 08:31:08;;;;;;;1.10;0.20;;;;;;;-128.00;-1.00;-1.00;104049;1257;1002673;-48
2023/02/20 08:33:44;;;;;;;1.90;0.30;;;;;;;-128.00;-1.00;-1.00;102976;1259;1013553;-47
2023/02/20 08:36:14;;;;;;;1.00;0.20;;;;;;;-128.00;-1.00;-1.00;102255;1261;1002970;-48
2023/02/20 08:39:34;;;;;;;0.70;0.20;;;;;;;1.64;100.00;99104.21;102066;1292;601055;-49
2023/02/20 08:42:04;;;;;;;2.40;0.40;;;;;;;1.64;100.00;99108.29;104300;1269;60487;-48
2023/02/20 08:44:33;;;;;;;0.70;0.20;;;;;;;1.63;100.00;99103.53;104543;1265;59452;-50
2023/02/20 08:47:02;;;;;;;0.40;0.20;;;;;;;1.62;100.00;99100.71;108032;1267;72730;-51
2023/02/20 08:49:32;;;;;;;0.70;0.20;;;;;;;1.61;100.00;99101.98;108475;1265;66214;-50
2023/02/20 08:52:02;;;;;;;0.70;0.20;;;;;;;1.65;100.00;99100.48;105892;1269;72894;-50
2023/02/20 08:54:31;;;;;;;0.70;0.20;;;;;;;-50.20;59.60;59465.77;103379;1263;1004017;-50
2023/02/20 08:56:59;;;;;;;0.50;0.20;;;;;;;-128.00;-1.00;-1.00;105827;1263;1011497;-50
2023/02/20 08:59:31;;;;;;;0.80;0.30;;;;;;;-128.00;-1.00;-1.00;105858;1263;1012621;-50
2023/02/20 09:01:59;;;;;;;1.60;0.20;;;;;;;-128.00;-1.00;-1.00;102477;1266;1014039;-51
2023/02/20 09:04:28;;;;;;;1.60;0.40;;;;;;;-128.00;-1.00;-1.00;105871;1263;1013313;-50
2023/02/20 09:06:56;;;;;;;0.50;0.20;;;;;;;-128.00;-1.00;-1.00;104342;1265;1003445;-48
2023/02/20 09:09:24;;;;;;;0.90;0.30;;;;;;;-128.00;-1.00;-1.00;102047;1267;1003036;-51
2023/02/20 09:11:52;;;;;;;1.70;0.30;;;;;;;-128.00;-1.00;-1.00;101883;1267;1002306;-49
2023/02/20 09:14:20;;;;;;;0.50;0.20;;;;;;;-128.00;-1.00;-1.00;101937;1263;1004058;-52
2023/02/20 09:16:51;;;;;;;1.10;0.30;;;;;;;-128.00;-1.00;-1.00;101577;1263;1015786;-48
2023/02/20 09:19:20;;;;;;;0.50;0.20;;;;;;;-128.00;-1.00;-1.00;103460;1263;1010402;-51
2023/02/20 09:21:48;;;;;;;1.10;0.20;;;;;;;-128.00;-1.00;-1.00;101804;1259;1011052;-51
2023/02/20 09:24:16;;;;;;;0.50;0.20;;;;;;;-128.00;-1.00;-1.00;102074;1263;1002601;-50
2023/02/20 09:26:44;;;;;;;0.70;0.20;;;;;;;-128.00;-1.00;-1.00;101925;1263;1002914;-51
2023/02/20 09:29:12;;;;;;;0.70;0.20;;;;;;;-128.00;-1.00;-1.00;102285;1259;1003064;-51
2023/02/20 09:31:40;;;;;;;0.60;0.20;;;;;;;-128.00;-1.00;-1.00;103196;1263;1010385;-50
2023/02/20 09:34:09;;;;;;;0.50;0.20;;;;;;;-128.00;-1.00;-1.00;101995;1260;1010878;-49
2023/02/20 09:36:38;;;;;;;0.50;0.20;;;;;;;-128.00;-1.00;-1.00;102619;1263;1013315;-50
2023/02/20 09:39:09;;;;;;;0.80;0.20;;;;;;;-128.00;-1.00;-1.00;101986;1263;1011863;-50
2023/02/20 09:41:40;;;;;;;0.80;0.20;;;;;;;-128.00;-1.00;-1.00;103116;1260;1013263;-50
2023/02/20 09:44:43;;;;;;;0.70;0.20;;;;;;;-128.00;-1.00;-1.00;102137;1259;1010289;-47
2023/02/20 09:47:35;;;;;;;1.00;0.20;;;;;;;-128.00;-1.00;-1.00;102241;1263;1011282;-48
2023/02/20 09:50:06;;;;;;;0.60;0.20;;;;;;;-128.00;-1.00;-1.00;102345;1263;1012846;-50
2023/02/20 09:52:34;;;;;;;1.30;0.30;;;;;;;-128.00;-1.00;-1.00;102011;1263;1015280;-51
2023/02/20 09:55:04;;;;;;;1.30;0.20;;;;;;;-128.00;-1.00;-1.00;101931;1266;1003003;-49
2023/02/20 09:57:33;;;;;;;0.40;0.20;;;;;;;-128.00;-1.00;-1.00;102221;1263;1010331;-51
2023/02/20 10:00:07;;;;;;;0.50;0.10;;;;;;;-128.00;-1.00;-1.00;102057;1262;1011162;-49
2023/02/20 10:02:46;;;;;;;1.30;0.30;;;;;;;-128.00;-1.00;-1.00;102183;1263;1013236;-50
2023/02/20 10:05:25;;;;;;;2.90;0.30;;;;;;;-128.00;-1.00;-1.00;102525;1260;1012872;-49
2023/02/20 10:07:54;;;;;;;0.60;0.20;;;;;;;-128.00;-1.00;-1.00;102728;1259;1013761;-49
2023/02/20 10:10:24;;;;;;;0.50;0.30;;;;;;;-128.00;-1.00;-1.00;102440;1260;1010130;-47
2023/02/20 10:12:53;;;;;;;0.40;0.20;;;;;;;-128.00;-1.00;-1.00;103341;1260;1011126;-48
2023/02/20 10:15:26;;;;;;;0.40;0.20;;;;;;;-128.00;-1.00;-1.00;102922;1260;1002629;-50
2023/02/20 10:18:02;;;;;;;0.90;0.40;;;;;;;-128.00;-1.00;-1.00;102240;1259;1012960;-49
2023/02/20 10:21:03;;;;;;;0.60;0.30;;;;;;;-128.00;-1.00;-1.00;102370;1259;1013367;-52
2023/02/20 10:24:17;;;;;;;0.40;0.20;;;;;;;-128.00;-1.00;-1.00;101888;1260;1012242;-49
2023/02/20 10:26:46;;;;;;;0.50;0.20;;;;;;;-128.00;-1.00;-1.00;102411;1260;1010669;-51
2023/02/20 10:29:15;;;;;;;0.50;0.20;;;;;;;-128.00;-1.00;-1.00;101879;1262;1012294;-49
2023/02/20 10:31:51;;;;;;;1.60;0.40;;;;;;;-128.00;-1.00;-1.00;102113;1260;1012540;-52
2023/02/20 10:34:33;;;;;;;0.80;0.30;;;;;;;-128.00;-1.00;-1.00;101989;1263;1014246;-46
2023/02/20 10:37:07;;;;;;;0.90;0.40;;;;;;;-128.00;-1.00;-1.00;101897;1260;1010010;-51
2023/02/20 10:39:35;;;;;;;1.80;0.50;;;;;;;-128.00;-1.00;-1.00;102144;1260;1011041;-51
2023/02/20 10:42:11;;;;;;;0.70;0.30;;;;;;;-128.00;-1.00;-1.00;102211;1257;1005243;-48
2023/02/20 10:44:41;;;;;;;0.90;0.30;;;;;;;-128.00;-1.00;-1.00;102114;1262;1012427;-48
2023/02/20 10:47:31;;;;;;;3.40;0.50;;;;;;;-128.00;-1.00;-1.00;102629;1257;1012772;-47
2023/02/20 10:50:06;;;;;;;1.00;0.40;;;;;;;-128.00;-1.00;-1.00;102224;1257;1010231;-50
2023/02/20 10:52:55;;;;;;;1.90;0.40;;;;;;;-128.00;-1.00;-1.00;102838;1261;1010979;-46
2023/02/20 10:55:27;;;;;;;2.30;0.40;;;;;;;-128.00;-1.00;-1.00;102444;1257;1012442;-48
2023/02/20 10:58:04;;;;;;;0.70;0.30;;;;;;;-128.00;-1.00;-1.00;102206;1260;1013297;-49
2023/02/20 11:00:55;;;;;;;1.50;0.50;;;;;;;-128.00;-1.00;-1.00;102308;1257;1013543;-50
2023/02/20 11:03:38;;;;;;;1.60;0.50;;;;;;;-128.00;-1.00;-1.00;102180;1260;1009805;-49
2023/02/20 11:06:08;;;;;;;0.70;0.40;;;;;;;-128.00;-1.00;-1.00;102681;1257;1010767;-51
2023/02/20 11:08:37;;;;;;;1.80;0.40;;;;;;;-128.00;-1.00;-1.00;102421;1258;1013536;-49
2023/02/20 11:11:19;;;;;;;0.90;0.30;;;;;;;-128.00;-1.00;-1.00;102350;1260;1012584;-51
2023/02/20 11:13:48;;;;;;;1.50;0.40;;;;;;;-128.00;-1.00;-1.00;102100;1262;1013167;-49
2023/02/20 11:16:28;;;;;;;0.50;0.30;;;;;;;-128.00;-1.00;-1.00;102254;1260;1003615;-49
2023/02/20 11:19:31;;;;;;;1.30;0.30;;;;;;;-128.00;-1.00;-1.00;102424;1257;1011004;-50
2023/02/20 11:21:59;;;;;;;0.80;0.40;;;;;;;-128.00;-1.00;-1.00;102384;1257;1013759;-49
2023/02/20 11:24:38;;;;;;;0.80;0.30;;;;;;;-128.00;-1.00;-1.00;105916;1260;1012854;-50
2023/02/20 11:27:18;;;;;;;1.80;0.30;;;;;;;-128.00;-1.00;-1.00;102180;1257;1016040;-51
2023/02/20 11:30:00;;;;;;;0.70;0.20;;;;;;;-128.00;-1.00;-1.00;102088;1257;1012170;-48
2023/02/20 11:32:35;;;;;;;3.20;1.40;;;;;;;-128.00;-1.00;-1.00;102860;1257;1011123;-50
2023/02/20 11:35:18;;;;;;;2.40;0.40;;;;;;;-128.00;-1.00;-1.00;102622;1261;1013365;-47
2023/02/20 11:37:50;;;;;;;2.50;0.30;;;;;;;-128.00;-1.00;-1.00;102240;1260;1012981;-49
2023/02/20 11:40:26;;;;;;;1.40;0.40;;;;;;;-128.00;-1.00;-1.00;102335;1260;1013457;-49
2023/02/20 11:42:55;;;;;;;0.80;0.40;;;;;;;-128.00;-1.00;-1.00;102322;1260;1010940;-48
2023/02/20 11:45:27;;;;;;;4.20;0.40;;;;;;;-128.00;-1.00;-1.00;102722;1260;1011380;-47
2023/02/20 11:48:18;;;;;;;0.70;0.30;;;;;;;-128.00;-1.00;-1.00;102545;1257;1012769;-48
2023/02/20 11:50:48;;;;;;;0.50;0.30;;;;;;;-128.00;-1.00;-1.00;102272;1259;1012733;-47
2023/02/20 11:53:35;;;;;;;1.60;0.30;;;;;;;-128.00;-1.00;-1.00;102639;1255;1013485;-49
2023/02/20 11:56:17;;;;;;;1.40;0.30;;;;;;;-128.00;-1.00;-1.00;102280;1256;1013553;-48
2023/02/20 11:58:46;;;;;;;1.00;0.30;;;;;;;-128.00;-1.00;-1.00;102645;1259;1011565;-50
2023/02/20 12:01:27;;;;;;;1.30;0.30;;;;;;;-128.00;-1.00;-1.00;102243;1257;1012489;-49